Perthshire, Mississippi
Current Conditions -  °F | °C
As of 2:15 PM on Wednesday 26 Nov 2014 (Local Time) from KRNV Reporting Station
Clear Clear  
Wind Chill: 61°   Ceiling: Unl
Heat Index: 61°   Visibility: 10mi
Dew Point: 43°   Wind: 15mph
Humidity: 52%   Direction: 260°W
Pressure: 30"   Gusts: 22mph
Location:  33.9429°N, 90.9264°W
Report Text: KRNV 262015Z AUTO 26013G19KT 10SM CLR 16/06 A3000 RMK AO2 T01630063
Loading
Personal Weather Stations






























Interactive Weather Map New forecast layout! Learn more

10-Day Weather Forecast

Advertisements
Track Severe Weather on mobile